Time;durP1;ratioP1;P1;durP2;ratioP2;P2;SDS_P1;SDS_P2;PMS_P1;PMS_P2;Temp;Humidity;BMP_temperature;BMP_pressure;BME280_temperature;BME280_humidity;BME280_pressure;Samples;Min_cycle;Max_cycle;Signal;HPM_P1;HPM_P2
2022/12/05 00:00:15;;;;;;;15.33;12.47;;;9.30;1.00;;;;;;4990331;28;20182;-57
2022/12/05 00:02:41;;;;;;;17.50;13.83;;;9.30;1.00;;;;;;4986164;28;20321;-56
2022/12/05 00:05:08;;;;;;;15.97;12.67;;;9.30;1.00;;;;;;4984817;28;20830;-56
2022/12/05 00:07:34;;;;;;;14.87;12.10;;;9.20;1.00;;;;;;4984829;28;20281;-57
2022/12/05 00:09:59;;;;;;;16.07;12.77;;;9.30;1.00;;;;;;4981993;28;20541;-56
2022/12/05 00:12:25;;;;;;;14.70;12.10;;;9.30;1.00;;;;;;4984835;28;20195;-56
2022/12/05 00:14:51;;;;;;;16.23;13.20;;;9.30;1.00;;;;;;4986346;28;20257;-56
2022/12/05 00:17:16;;;;;;;17.10;13.10;;;9.30;1.00;;;;;;4980296;28;20238;-55
2022/12/05 00:19:42;;;;;;;16.40;13.27;;;9.30;1.00;;;;;;4988212;28;20194;-57
2022/12/05 00:22:07;;;;;;;17.00;13.30;;;9.30;1.00;;;;;;4985322;28;20628;-57
2022/12/05 00:24:33;;;;;;;16.40;13.23;;;9.20;1.00;;;;;;4983708;28;20189;-58
2022/12/05 00:26:58;;;;;;;14.30;12.53;;;9.30;1.00;;;;;;4983426;28;20188;-57
2022/12/05 00:29:24;;;;;;;16.30;13.07;;;9.20;1.00;;;;;;4986521;28;20215;-56
2022/12/05 00:31:50;;;;;;;14.27;12.10;;;9.20;1.00;;;;;;4992359;28;20196;-56
2022/12/05 00:34:15;;;;;;;19.23;13.73;;;9.30;1.00;;;;;;4982409;28;20337;-57
2022/12/05 00:36:41;;;;;;;15.30;13.20;;;9.40;1.00;;;;;;4987014;28;20265;-56
2022/12/05 00:39:10;;;;;;;17.40;13.67;;;9.30;1.00;;;;;;4964451;28;20223;-56
2022/12/05 00:41:36;;;;;;;16.53;13.70;;;9.00;1.00;;;;;;4986065;28;20295;-56
2022/12/05 00:44:03;;;;;;;17.53;13.90;;;9.30;1.00;;;;;;4976790;28;20542;-55
2022/12/05 00:46:31;;;;;;;19.30;14.10;;;9.20;1.00;;;;;;4981340;28;20451;-55
2022/12/05 00:48:58;;;;;;;17.63;14.40;;;9.30;1.00;;;;;;4986106;28;20867;-57
2022/12/05 00:51:38;;;;;;;18.93;14.00;;;9.40;1.00;;;;;;4990088;28;20434;-55
2022/12/05 00:54:09;;;;;;;19.13;14.20;;;9.30;1.00;;;;;;4990793;28;21039;-58
2022/12/05 00:56:35;;;;;;;17.20;13.83;;;9.30;1.00;;;;;;4987743;28;20780;-56
2022/12/05 00:59:02;;;;;;;16.70;13.13;;;9.30;1.00;;;;;;4988800;28;20445;-55
2022/12/05 01:01:36;;;;;;;16.50;13.90;;;9.30;1.00;;;;;;4993028;28;20490;-55
2022/12/05 01:04:06;;;;;;;16.93;13.87;;;9.30;1.00;;;;;;4988108;28;20412;-56
2022/12/05 01:06:32;;;;;;;17.73;14.70;;;9.30;1.00;;;;;;4982986;28;20439;-56
2022/12/05 01:08:58;;;;;;;17.30;13.27;;;9.30;1.00;;;;;;4989937;28;20434;-56
2022/12/05 01:11:25;;;;;;;18.60;14.90;;;9.30;1.00;;;;;;4986563;28;20446;-56
2022/12/05 01:13:51;;;;;;;17.80;14.90;;;9.40;1.00;;;;;;4985705;28;20449;-56
2022/12/05 01:16:35;;;;;;;17.53;14.80;;;9.40;1.00;;;;;;4987720;28;20457;-57
2022/12/05 01:19:04;;;;;;;19.63;14.53;;;9.40;1.00;;;;;;4985173;28;20465;-56
2022/12/05 01:21:31;;;;;;;15.67;12.57;;;9.30;1.00;;;;;;4988245;28;20567;-55
2022/12/05 01:23:57;;;;;;;19.07;15.27;;;9.40;1.00;;;;;;4992302;28;20473;-56
2022/12/05 01:26:23;;;;;;;18.73;14.10;;;9.30;1.00;;;;;;4984506;28;20491;-56
2022/12/05 01:28:50;;;;;;;21.60;15.13;;;9.30;1.00;;;;;;4986133;28;20264;-57
2022/12/05 01:31:25;;;;;;;16.70;14.10;;;9.40;1.00;;;;;;4987577;28;20449;-56
2022/12/05 01:33:52;;;;;;;18.50;14.10;;;9.40;1.00;;;;;;4987213;28;20416;-57
2022/12/05 01:36:18;;;;;;;17.93;13.50;;;9.40;1.00;;;;;;4990128;28;20457;-57
2022/12/05 01:38:44;;;;;;;18.87;13.70;;;9.40;1.00;;;;;;4986271;28;20447;-56
2022/12/05 01:41:19;;;;;;;19.33;15.77;;;9.40;1.00;;;;;;4989211;28;20852;-56
2022/12/05 01:44:07;;;;;;;18.60;13.67;;;9.50;1.00;;;;;;4988047;28;20193;-56
2022/12/05 01:46:35;;;;;;;18.77;15.30;;;9.50;1.00;;;;;;4990125;28;20873;-57
2022/12/05 01:49:11;;;;;;;16.83;14.50;;;9.40;1.00;;;;;;4998966;28;20833;-57
2022/12/05 01:51:39;;;;;;;18.40;14.30;;;9.40;1.00;;;;;;4992801;28;20456;-57
2022/12/05 01:54:06;;;;;;;18.13;14.83;;;9.40;1.00;;;;;;4988619;28;20425;-56
2022/12/05 01:56:34;;;;;;;19.20;14.90;;;9.40;1.00;;;;;;4982971;28;20936;-56
2022/12/05 01:59:01;;;;;;;21.60;15.27;;;9.40;1.00;;;;;;4985957;28;20430;-56
2022/12/05 02:01:27;;;;;;;17.30;14.10;;;9.40;1.00;;;;;;4986701;28;20479;-56
2022/12/05 02:03:56;;;;;;;16.17;12.83;;;9.30;1.00;;;;;;4985163;28;20581;-56
2022/12/05 02:06:23;;;;;;;19.30;14.43;;;9.40;1.00;;;;;;4984639;28;20563;-56
2022/12/05 02:08:51;;;;;;;16.30;13.37;;;9.40;1.00;;;;;;4990933;28;21265;-57
2022/12/05 02:11:17;;;;;;;17.53;14.30;;;9.40;1.00;;;;;;4984414;28;20449;-56
2022/12/05 02:13:54;;;;;;;18.20;15.00;;;9.40;1.00;;;;;;4983705;28;20432;-56
2022/12/05 02:16:48;;;;;;;17.80;14.67;;;9.40;1.00;;;;;;4986511;28;21207;-56
2022/12/05 02:19:38;;;;;;;19.60;14.93;;;9.40;1.00;;;;;;4987245;28;20448;-55
2022/12/05 02:22:23;;;;;;;17.90;14.53;;;9.40;1.00;;;;;;4989228;28;20487;-56
2022/12/05 02:25:15;;;;;;;20.03;13.60;;;9.40;1.00;;;;;;4986001;28;20491;-59
2022/12/05 02:28:14;;;;;;;17.30;14.00;;;9.40;1.00;;;;;;4988380;28;20454;-56
2022/12/05 02:30:53;;;;;;;18.33;13.07;;;9.40;1.00;;;;;;4998312;28;20967;-56
2022/12/05 02:33:37;;;;;;;18.23;13.10;;;9.40;1.00;;;;;;4986226;28;20461;-57
2022/12/05 02:36:39;;;;;;;19.70;15.07;;;9.40;1.00;;;;;;4985383;28;20448;-57
2022/12/05 02:39:28;;;;;;;19.30;15.23;;;9.30;1.00;;;;;;4957453;28;20449;-56
2022/12/05 02:42:12;;;;;;;16.60;13.63;;;9.40;1.00;;;;;;4986851;28;20476;-57
2022/12/05 02:44:53;;;;;;;17.23;14.27;;;9.50;1.00;;;;;;4987374;28;20855;-56
2022/12/05 02:47:23;;;;;;;16.50;12.80;;;9.40;1.00;;;;;;4985573;28;21054;-56
2022/12/05 02:49:51;;;;;;;17.33;13.40;;;9.40;1.00;;;;;;4986908;28;20599;-55
2022/12/05 02:52:18;;;;;;;17.33;13.60;;;9.30;1.00;;;;;;4987770;28;20421;-58
2022/12/05 02:54:46;;;;;;;15.80;12.97;;;9.30;1.00;;;;;;4985608;28;20511;-56
2022/12/05 02:57:13;;;;;;;17.90;14.00;;;9.20;1.00;;;;;;4982806;28;20513;-56
2022/12/05 02:59:39;;;;;;;16.87;12.60;;;9.30;1.00;;;;;;4985267;28;20459;-57
2022/12/05 03:02:06;;;;;;;15.70;12.17;;;9.40;1.00;;;;;;4983382;28;20567;-56
2022/12/05 03:04:32;;;;;;;15.03;12.57;;;9.30;1.00;;;;;;4980195;28;20577;-56
2022/12/05 03:07:02;;;;;;;18.27;13.00;;;9.20;1.00;;;;;;4982590;28;20445;-56
2022/12/05 03:09:42;;;;;;;17.00;13.93;;;9.20;1.00;;;;;;4989055;28;20537;-56
2022/12/05 03:12:21;;;;;;;18.80;13.30;;;9.30;1.00;;;;;;4979825;28;20453;-57
2022/12/05 03:15:01;;;;;;;18.50;12.93;;;9.30;1.00;;;;;;4979734;28;20450;-56
2022/12/05 03:17:48;;;;;;;16.20;12.90;;;9.20;1.00;;;;;;4986917;28;20461;-56
2022/12/05 03:20:28;;;;;;;17.73;12.83;;;9.30;1.00;;;;;;4984937;28;20456;-56
2022/12/05 03:23:04;;;;;;;17.20;12.70;;;9.30;1.00;;;;;;4984708;28;20488;-57
2022/12/05 03:25:39;;;;;;;16.43;13.13;;;9.20;1.00;;;;;;4984232;28;20503;-57
2022/12/05 03:28:12;;;;;;;15.93;12.30;;;9.20;1.00;;;;;;4981518;28;20500;-57
2022/12/05 03:30:38;;;;;;;13.43;11.90;;;9.30;1.00;;;;;;4984037;28;20464;-56
2022/12/05 03:33:07;;;;;;;14.43;11.80;;;9.40;1.00;;;;;;4986093;28;20431;-55
2022/12/05 03:35:44;;;;;;;18.13;13.20;;;9.20;1.00;;;;;;4983732;28;20541;-58
2022/12/05 03:38:30;;;;;;;15.20;13.00;;;9.30;1.00;;;;;;4988628;28;20423;-56
2022/12/05 03:41:22;;;;;;;18.47;12.57;;;9.30;1.00;;;;;;4982204;28;20470;-56
2022/12/05 03:43:55;;;;;;;15.43;12.17;;;9.30;1.00;;;;;;4983684;28;20495;-56
2022/12/05 03:46:41;;;;;;;16.00;12.70;;;9.30;1.00;;;;;;4982954;28;20410;-56
2022/12/05 03:49:41;;;;;;;13.73;10.90;;;9.20;1.00;;;;;;4979459;28;20436;-55
2022/12/05 03:52:21;;;;;;;14.77;11.13;;;9.20;1.00;;;;;;4981943;28;20482;-57
2022/12/05 03:54:54;;;;;;;12.63;11.30;;;9.30;1.00;;;;;;4984972;28;20426;-56
2022/12/05 03:57:25;;;;;;;16.67;12.40;;;9.30;1.00;;;;;;4985185;28;20420;-57
2022/12/05 03:59:58;;;;;;;15.33;11.77;;;9.30;1.00;;;;;;4984255;28;20441;-57
2022/12/05 04:02:31;;;;;;;14.10;11.60;;;9.20;1.00;;;;;;4983685;28;21020;-57
2022/12/05 04:05:07;;;;;;;14.93;11.97;;;9.10;1.00;;;;;;4985489;28;21216;-56
2022/12/05 04:07:37;;;;;;;15.37;11.10;;;9.10;1.00;;;;;;4988974;28;20470;-56
2022/12/05 04:10:11;;;;;;;14.03;11.10;;;9.10;1.00;;;;;;4987745;28;20424;-55
2022/12/05 04:12:40;;;;;;;15.97;13.00;;;9.20;1.00;;;;;;4983248;28;20444;-56
2022/12/05 04:15:21;;;;;;;12.93;10.73;;;9.20;1.00;;;;;;4986167;28;20456;-56
2022/12/05 04:17:57;;;;;;;13.07;10.37;;;9.20;1.00;;;;;;5000807;28;20930;-56
2022/12/05 04:23:21;;;;;;;13.77;10.60;;;9.20;1.00;;;;;;4982750;28;20895;-56
2022/12/05 04:26:10;;;;;;;14.03;10.70;;;9.10;1.00;;;;;;4991733;28;20777;-56
2022/12/05 04:29:04;;;;;;;13.70;10.13;;;9.20;1.00;;;;;;4986388;28;20454;-56
2022/12/05 04:31:40;;;;;;;13.40;9.80;;;9.20;1.00;;;;;;4984533;28;20452;-56
2022/12/05 04:34:10;;;;;;;17.40;10.30;;;9.20;1.00;;;;;;4989315;28;20448;-56
2022/12/05 04:36:43;;;;;;;13.10;10.77;;;9.30;1.00;;;;;;4993319;28;20426;-56
2022/12/05 04:39:19;;;;;;;13.30;10.83;;;9.30;1.00;;;;;;4995975;28;20450;-56
2022/12/05 04:42:08;;;;;;;12.70;10.97;;;9.20;1.00;;;;;;4993073;28;20511;-55
2022/12/05 04:44:41;;;;;;;15.03;10.83;;;9.10;1.00;;;;;;4986955;28;20552;-56
2022/12/05 04:47:09;;;;;;;14.43;11.10;;;9.10;1.00;;;;;;4986963;28;20447;-56
2022/12/05 04:49:37;;;;;;;14.13;10.57;;;9.20;1.00;;;;;;4990804;28;20445;-56
2022/12/05 04:52:06;;;;;;;14.30;10.87;;;9.20;1.00;;;;;;4996514;28;20521;-56
2022/12/05 04:54:44;;;;;;;13.03;10.30;;;9.20;1.00;;;;;;4986696;28;20877;-57
2022/12/05 04:57:32;;;;;;;13.13;10.67;;;9.20;1.00;;;;;;4991257;28;20420;-56
2022/12/05 04:59:57;;;;;;;13.37;10.53;;;9.20;1.00;;;;;;4988572;28;20798;-57
2022/12/05 05:02:41;;;;;;;12.50;10.30;;;9.20;1.00;;;;;;4987442;28;20465;-56
2022/12/05 05:05:10;;;;;;;14.03;10.87;;;9.20;1.00;;;;;;4986424;28;20217;-57
2022/12/05 05:07:48;;;;;;;12.37;11.00;;;9.20;1.00;;;;;;4985506;28;20434;-56
2022/12/05 05:10:18;;;;;;;11.80;10.43;;;9.30;1.00;;;;;;4987047;28;20420;-56
2022/12/05 05:12:44;;;;;;;12.60;10.80;;;9.30;1.00;;;;;;4988644;28;20953;-57
2022/12/05 05:15:10;;;;;;;14.23;10.97;;;9.30;1.00;;;;;;4982423;28;20461;-56
2022/12/05 05:17:35;;;;;;;11.93;9.97;;;9.30;1.00;;;;;;4988183;28;20250;-56
2022/12/05 05:22:47;;;;;;;11.27;9.67;;;9.20;1.00;;;;;;4989231;28;20621;-55
2022/12/05 05:25:13;;;;;;;11.93;10.30;;;9.30;1.00;;;;;;4995397;28;20515;-54
2022/12/05 05:27:39;;;;;;;12.10;10.20;;;9.20;1.00;;;;;;4985073;28;20431;-55
2022/12/05 05:30:05;;;;;;;11.97;10.60;;;9.20;1.00;;;;;;4990903;28;20197;-55
2022/12/05 05:32:34;;;;;;;12.20;10.70;;;9.30;1.00;;;;;;4994159;28;20189;-54
2022/12/05 05:34:59;;;;;;;12.80;10.40;;;9.20;1.00;;;;;;4989219;28;20783;-55
2022/12/05 05:37:25;;;;;;;12.60;9.93;;;9.30;1.00;;;;;;4995754;28;20454;-54
2022/12/05 05:39:50;;;;;;;11.70;10.30;;;9.40;1.00;;;;;;4996919;28;20205;-55
2022/12/05 05:42:16;;;;;;;13.13;10.87;;;9.20;1.00;;;;;;4991859;28;20217;-57
2022/12/05 05:44:42;;;;;;;12.70;10.47;;;9.20;1.00;;;;;;4984161;28;20197;-56
2022/12/05 05:47:07;;;;;;;12.77;10.47;;;9.20;1.00;;;;;;4989342;28;20220;-57
2022/12/05 05:49:33;;;;;;;12.23;10.20;;;9.30;1.00;;;;;;4988408;28;20271;-56
2022/12/05 05:51:58;;;;;;;12.27;10.53;;;9.20;1.00;;;;;;4989370;28;20194;-57
2022/12/05 05:54:24;;;;;;;10.80;9.00;;;9.20;1.00;;;;;;4988975;28;20196;-57
2022/12/05 05:56:50;;;;;;;11.20;9.53;;;9.20;1.00;;;;;;4990066;28;20272;-57
2022/12/05 05:59:15;;;;;;;15.23;11.17;;;9.30;1.00;;;;;;4987798;28;20252;-57
2022/12/05 06:01:41;;;;;;;12.03;10.00;;;9.20;1.00;;;;;;4989143;28;20210;-58
2022/12/05 06:04:06;;;;;;;13.23;11.30;;;9.30;1.00;;;;;;4990790;28;20194;-57
2022/12/05 06:06:32;;;;;;;13.23;10.50;;;9.30;1.00;;;;;;4984400;28;20186;-58
2022/12/05 06:08:58;;;;;;;12.20;9.83;;;9.40;1.00;;;;;;4980662;28;20679;-56
2022/12/05 06:11:26;;;;;;;10.70;9.40;;;9.30;1.00;;;;;;4983432;28;20191;-57
2022/12/05 06:13:56;;;;;;;12.43;10.50;;;9.30;1.00;;;;;;4982548;28;20232;-57
2022/12/05 06:16:23;;;;;;;11.63;10.43;;;9.20;1.00;;;;;;4988838;28;20547;-57
2022/12/05 06:18:48;;;;;;;13.90;11.30;;;9.20;1.00;;;;;;4990557;28;20501;-57
2022/12/05 06:21:14;;;;;;;16.07;11.37;;;9.30;1.00;;;;;;4984564;28;20439;-56
2022/12/05 06:23:40;;;;;;;12.37;10.47;;;9.30;1.00;;;;;;4983475;28;20189;-57
2022/12/05 06:26:11;;;;;;;14.90;11.27;;;9.30;1.00;;;;;;4986625;28;20451;-57
2022/12/05 06:28:38;;;;;;;12.87;9.90;;;9.30;1.00;;;;;;4990130;28;20867;-58
2022/12/05 06:31:13;;;;;;;13.10;11.00;;;9.20;1.00;;;;;;4988309;28;20481;-57
2022/12/05 06:33:38;;;;;;;13.73;10.57;;;9.20;1.00;;;;;;4988837;28;20412;-56
2022/12/05 06:36:07;;;;;;;13.03;10.20;;;9.10;1.00;;;;;;4988110;28;20445;-57
2022/12/05 06:38:33;;;;;;;11.33;10.03;;;9.20;1.00;;;;;;4990742;28;20199;-58
2022/12/05 06:40:59;;;;;;;13.23;9.80;;;9.20;1.00;;;;;;4989157;28;20529;-57
2022/12/05 06:43:24;;;;;;;15.60;11.00;;;9.20;1.00;;;;;;4991129;28;20190;-57
2022/12/05 06:45:50;;;;;;;16.03;10.83;;;9.30;1.00;;;;;;4987541;28;20234;-58
2022/12/05 06:48:16;;;;;;;15.00;11.20;;;9.20;1.00;;;;;;5000895;28;20820;-57
2022/12/05 06:50:48;;;;;;;13.13;10.93;;;9.20;1.00;;;;;;4990687;28;20182;-57
2022/12/05 06:53:13;;;;;;;12.20;10.90;;;9.30;1.00;;;;;;4989374;28;20237;-57
2022/12/05 06:55:39;;;;;;;11.57;9.83;;;9.30;1.00;;;;;;4988101;28;20462;-57
2022/12/05 06:58:05;;;;;;;12.70;10.40;;;9.30;1.00;;;;;;4985852;28;20191;-56
2022/12/05 07:03:34;;;;;;;10.80;9.70;;;9.30;1.00;;;;;;4908533;29;20670;-58
2022/12/05 07:06:01;;;;;;;12.27;9.77;;;9.30;1.00;;;;;;4909401;29;20510;-58
2022/12/05 07:08:27;;;;;;;10.60;9.47;;;9.40;1.00;;;;;;4947514;28;20685;-58
2022/12/05 07:10:53;;;;;;;12.87;10.33;;;9.40;1.00;;;;;;4988959;28;20449;-58
2022/12/05 07:13:19;;;;;;;12.07;10.07;;;9.40;1.00;;;;;;4989288;28;20220;-56
2022/12/05 07:15:48;;;;;;;15.00;11.57;;;9.40;1.00;;;;;;4988933;28;20443;-57
2022/12/05 07:18:15;;;;;;;11.27;9.90;;;9.40;1.00;;;;;;4989502;28;20237;-57
2022/12/05 07:20:42;;;;;;;13.60;11.07;;;9.40;1.00;;;;;;4988160;28;20972;-58
2022/12/05 07:23:08;;;;;;;16.07;11.93;;;9.50;1.00;;;;;;4989781;28;20528;-57
2022/12/05 07:25:38;;;;;;;12.97;11.00;;;9.40;1.00;;;;;;4989114;28;20974;-57
2022/12/05 07:28:04;;;;;;;13.90;10.90;;;9.40;1.00;;;;;;4985097;28;20448;-57
2022/12/05 07:30:29;;;;;;;12.60;10.70;;;9.40;1.00;;;;;;4984516;28;20448;-57
2022/12/05 07:32:55;;;;;;;14.03;11.53;;;9.40;1.00;;;;;;4988157;28;20209;-59
2022/12/05 07:35:20;;;;;;;17.40;11.90;;;9.40;1.00;;;;;;4987611;28;20195;-58
2022/12/05 07:37:46;;;;;;;11.60;9.80;;;9.40;1.00;;;;;;4988162;28;20202;-56
2022/12/05 07:40:12;;;;;;;11.50;10.10;;;9.50;1.00;;;;;;4988693;28;20658;-57
2022/12/05 07:42:38;;;;;;;15.93;10.60;;;9.60;1.00;;;;;;4985743;28;20302;-57
2022/12/05 07:45:04;;;;;;;14.53;10.20;;;9.60;1.00;;;;;;4984108;28;20540;-58
2022/12/05 07:47:30;;;;;;;13.40;11.40;;;9.70;1.00;;;;;;4983676;28;20715;-56
2022/12/05 07:49:56;;;;;;;14.27;11.00;;;9.80;1.00;;;;;;4982539;28;20567;-56
2022/12/05 07:52:21;;;;;;;11.97;10.03;;;9.90;1.00;;;;;;4985488;28;20433;-56
2022/12/05 07:54:47;;;;;;;14.10;10.87;;;9.80;1.00;;;;;;4986858;28;20427;-57
2022/12/05 07:57:13;;;;;;;14.70;10.37;;;9.80;1.00;;;;;;4991279;28;20204;-58
2022/12/05 07:59:38;;;;;;;11.70;10.10;;;9.80;1.00;;;;;;5000428;28;20500;-57
2022/12/05 08:02:04;;;;;;;12.00;10.20;;;9.80;1.00;;;;;;4987237;28;20246;-56
2022/12/05 08:04:30;;;;;;;12.27;10.40;;;9.90;1.00;;;;;;4990293;28;20205;-58
2022/12/05 08:06:56;;;;;;;12.07;10.83;;;9.90;1.00;;;;;;4990648;28;20434;-57
2022/12/05 08:09:21;;;;;;;12.80;10.77;;;9.90;1.00;;;;;;5008881;28;20177;-57
2022/12/05 08:11:47;;;;;;;13.37;11.57;;;9.90;1.00;;;;;;5009524;28;20179;-56
2022/12/05 08:14:12;;;;;;;19.70;14.80;;;10.00;1.00;;;;;;4993890;28;20190;-58
2022/12/05 08:16:38;;;;;;;28.90;21.17;;;10.00;1.00;;;;;;5000164;28;20205;-57
2022/12/05 08:19:07;;;;;;;37.30;26.27;;;9.80;1.00;;;;;;4997151;28;20653;-58
2022/12/05 08:21:33;;;;;;;53.50;26.40;;;9.40;1.00;;;;;;4992945;28;20217;-56
2022/12/05 08:23:59;;;;;;;48.57;28.10;;;9.00;1.00;;;;;;4993401;28;20451;-57
2022/12/05 08:26:27;;;;;;;45.70;27.50;;;8.90;1.00;;;;;;4993207;28;20419;-57
2022/12/05 08:28:59;;;;;;;42.63;25.57;;;8.90;1.00;;;;;;4993701;28;20543;-56
2022/12/05 08:31:26;;;;;;;41.30;26.93;;;9.00;1.00;;;;;;5006216;28;20513;-57
2022/12/05 08:33:52;;;;;;;42.80;28.07;;;9.00;1.00;;;;;;5012896;28;21091;-56
2022/12/05 08:36:18;;;;;;;43.03;26.40;;;9.00;1.00;;;;;;4993614;28;20431;-57
2022/12/05 08:38:45;;;;;;;46.20;27.57;;;9.10;1.00;;;;;;4992844;28;20201;-57
2022/12/05 08:41:13;;;;;;;43.90;25.63;;;9.10;1.00;;;;;;4992538;28;20471;-57
2022/12/05 08:43:39;;;;;;;42.63;25.87;;;9.10;1.00;;;;;;5012448;28;20444;-57
2022/12/05 08:46:05;;;;;;;42.80;26.80;;;9.20;1.00;;;;;;5012605;28;20774;-57
2022/12/05 08:48:32;;;;;;;49.40;27.20;;;9.20;1.00;;;;;;5012615;28;20484;-58
2022/12/05 08:50:59;;;;;;;49.70;26.90;;;9.30;1.00;;;;;;5003089;28;20419;-57
2022/12/05 08:53:25;;;;;;;58.90;26.63;;;9.30;1.00;;;;;;4992763;28;20441;-58
2022/12/05 08:55:51;;;;;;;63.53;28.60;;;9.30;1.00;;;;;;5011196;28;20454;-56
2022/12/05 08:58:16;;;;;;;45.73;27.17;;;9.40;1.00;;;;;;5012382;28;20445;-56
2022/12/05 09:00:42;;;;;;;44.13;25.77;;;9.40;1.00;;;;;;5011719;28;20189;-57
2022/12/05 09:03:11;;;;;;;35.73;25.20;;;9.50;1.00;;;;;;5011870;28;20755;-57
2022/12/05 09:05:37;;;;;;;35.93;26.00;;;9.60;1.00;;;;;;4995590;28;20440;-57
2022/12/05 09:08:03;;;;;;;36.90;25.43;;;9.70;1.00;;;;;;4992412;28;20445;-57
2022/12/05 09:10:29;;;;;;;44.70;26.40;;;9.70;1.00;;;;;;4991857;28;20441;-57
2022/12/05 09:12:55;;;;;;;35.03;24.27;;;9.60;1.00;;;;;;4992645;28;20189;-56
2022/12/05 09:15:20;;;;;;;38.20;24.23;;;9.70;1.00;;;;;;4992274;28;20468;-57
2022/12/05 09:17:46;;;;;;;41.23;25.60;;;9.80;1.00;;;;;;4992746;28;20195;-58
2022/12/05 09:20:12;;;;;;;32.67;23.53;;;9.70;1.00;;;;;;4990395;28;20580;-57
2022/12/05 09:22:39;;;;;;;38.50;24.23;;;9.70;1.00;;;;;;4992385;28;20267;-57
2022/12/05 09:25:05;;;;;;;39.63;27.30;;;9.80;1.00;;;;;;4992118;28;20462;-58
2022/12/05 09:27:31;;;;;;;39.40;24.50;;;9.90;1.00;;;;;;4992161;28;20440;-58
2022/12/05 09:29:56;;;;;;;38.80;25.20;;;9.80;1.00;;;;;;4992295;28;20412;-57
2022/12/05 09:32:22;;;;;;;40.63;23.50;;;9.80;1.00;;;;;;4992276;28;20257;-58
2022/12/05 09:34:48;;;;;;;43.40;25.87;;;9.80;1.00;;;;;;4990208;28;20661;-57
2022/12/05 09:37:13;;;;;;;45.07;25.27;;;9.80;1.00;;;;;;4992359;28;20191;-57
2022/12/05 09:39:39;;;;;;;36.10;23.10;;;9.90;1.00;;;;;;4992199;28;20191;-57
2022/12/05 09:42:32;;;;;;;40.53;25.00;;;10.00;1.00;;;;;;4992170;28;20636;-57
2022/12/05 09:45:19;;;;;;;35.30;23.37;;;10.00;1.00;;;;;;4991807;28;20184;-57
2022/12/05 09:47:59;;;;;;;36.80;22.47;;;10.10;1.00;;;;;;4991595;28;20466;-57
2022/12/05 09:50:29;;;;;;;33.33;22.37;;;10.10;1.00;;;;;;4988888;28;20425;-58
2022/12/05 09:53:13;;;;;;;33.77;22.23;;;10.10;1.00;;;;;;4991792;28;20438;-57
2022/12/05 09:55:50;;;;;;;35.00;24.27;;;10.10;1.00;;;;;;4998460;28;20420;-58
2022/12/05 09:58:32;;;;;;;33.27;24.43;;;10.10;1.00;;;;;;5011150;28;20433;-57
2022/12/05 10:01:28;;;;;;;36.57;22.73;;;10.20;1.00;;;;;;5003129;28;20504;-56
2022/12/05 10:04:12;;;;;;;31.87;24.03;;;10.10;1.00;;;;;;4990639;28;20528;-57
2022/12/05 10:06:46;;;;;;;36.13;25.60;;;10.00;1.00;;;;;;4991901;28;20493;-58
2022/12/05 10:09:20;;;;;;;41.70;27.60;;;10.10;1.00;;;;;;4991905;28;20445;-57
2022/12/05 10:12:09;;;;;;;34.53;24.90;;;10.00;1.00;;;;;;4991792;28;20434;-57
2022/12/05 10:14:50;;;;;;;31.73;23.60;;;10.10;1.00;;;;;;4991625;28;20531;-57
2022/12/05 10:17:25;;;;;;;33.90;22.70;;;10.10;1.00;;;;;;4991218;28;20474;-57
2022/12/05 10:19:55;;;;;;;32.60;24.77;;;10.10;1.00;;;;;;4988478;28;20962;-57
2022/12/05 10:22:49;;;;;;;37.13;22.90;;;10.10;1.00;;;;;;4990474;28;20441;-57
2022/12/05 10:25:19;;;;;;;28.00;22.03;;;10.20;1.00;;;;;;4999867;28;20413;-52
2022/12/05 10:27:54;;;;;;;28.53;21.67;;;10.20;1.00;;;;;;5007394;28;20407;-53
2022/12/05 10:30:22;;;;;;;24.10;19.13;;;10.20;1.00;;;;;;4988738;28;20828;-53
2022/12/05 10:32:51;;;;;;;27.23;19.17;;;10.30;1.00;;;;;;5003001;28;21004;-53
2022/12/05 10:35:35;;;;;;;24.70;17.40;;;10.30;1.00;;;;;;5001632;28;20438;-52
2022/12/05 10:38:31;;;;;;;23.77;17.57;;;10.40;1.00;;;;;;4998055;28;20744;-52
2022/12/05 10:41:00;;;;;;;22.30;17.73;;;10.30;1.00;;;;;;4998810;28;20470;-52
2022/12/05 10:43:28;;;;;;;22.73;16.40;;;10.40;1.00;;;;;;4995793;28;20401;-53
2022/12/05 10:45:54;;;;;;;17.60;14.47;;;10.30;1.00;;;;;;4999821;28;20438;-52
2022/12/05 10:48:22;;;;;;;20.47;15.10;;;10.20;1.00;;;;;;5003660;28;20756;-56
2022/12/05 10:50:53;;;;;;;21.43;15.97;;;10.30;1.00;;;;;;5004660;28;20860;-55
2022/12/05 10:53:36;;;;;;;15.93;12.77;;;10.40;1.00;;;;;;5004195;28;20440;-54
2022/12/05 10:56:02;;;;;;;14.37;10.50;;;10.40;1.00;;;;;;5009775;28;20755;-57
2022/12/05 10:58:29;;;;;;;16.50;10.90;;;10.30;1.00;;;;;;5006299;28;20429;-54
2022/12/05 11:01:05;;;;;;;15.23;11.87;;;10.30;1.00;;;;;;4997320;28;20202;-51
2022/12/05 11:03:35;;;;;;;15.50;11.40;;;10.30;1.00;;;;;;4990642;28;20442;-54
2022/12/05 11:06:15;;;;;;;13.67;11.60;;;10.30;1.00;;;;;;4996725;28;20444;-52
2022/12/05 11:08:41;;;;;;;14.50;10.37;;;10.30;1.00;;;;;;4999069;28;20520;-53
2022/12/05 11:11:18;;;;;;;14.20;11.20;;;10.10;1.00;;;;;;4984533;28;21014;-52
2022/12/05 11:13:56;;;;;;;15.43;11.60;;;10.00;1.00;;;;;;5000075;28;20185;-55
2022/12/05 11:16:31;;;;;;;17.43;12.53;;;10.00;1.00;;;;;;5007683;28;20448;-54
2022/12/05 11:19:16;;;;;;;15.70;12.20;;;9.90;1.00;;;;;;5004613;28;21045;-54
2022/12/05 11:21:43;;;;;;;14.50;11.33;;;10.00;1.00;;;;;;4996284;28;20557;-55
2022/12/05 11:24:29;;;;;;;16.53;12.53;;;9.90;1.00;;;;;;4998659;28;20914;-56
2022/12/05 11:26:57;;;;;;;12.97;11.50;;;9.90;1.00;;;;;;4975829;28;20566;-55
2022/12/05 11:29:28;;;;;;;14.63;10.83;;;9.90;1.00;;;;;;4997968;28;20592;-55
2022/12/05 11:31:53;;;;;;;16.30;11.87;;;9.90;1.00;;;;;;5001500;28;20442;-56
2022/12/05 11:34:32;;;;;;;16.27;11.70;;;9.90;1.00;;;;;;5006277;28;20445;-53
2022/12/05 11:37:14;;;;;;;16.50;11.97;;;9.90;1.00;;;;;;4993246;28;20191;-55
2022/12/05 11:39:40;;;;;;;17.67;12.23;;;9.80;1.00;;;;;;4994478;28;20416;-56
2022/12/05 11:42:31;;;;;;;14.20;11.33;;;9.80;1.00;;;;;;4982350;28;20810;-54
2022/12/05 11:45:24;;;;;;;15.90;11.37;;;9.80;1.00;;;;;;4997617;28;20200;-55
2022/12/05 11:48:08;;;;;;;15.10;11.23;;;9.80;1.00;;;;;;4996670;28;20439;-53
2022/12/05 11:51:15;;;;;;;14.20;10.67;;;9.90;1.00;;;;;;4996730;28;20406;-53
2022/12/05 11:53:50;;;;;;;15.63;10.87;;;10.00;1.00;;;;;;4957314;28;20562;-52
2022/12/05 11:56:50;;;;;;;13.50;10.57;;;10.00;1.00;;;;;;4998663;28;20495;-54
2022/12/05 11:59:53;;;;;;;13.07;10.50;;;10.00;1.00;;;;;;4950208;28;20456;-53
2022/12/05 12:02:18;;;;;;;14.27;10.63;;;10.00;1.00;;;;;;4992694;28;20490;-55
2022/12/05 12:05:11;;;;;;;19.50;11.07;;;10.00;1.00;;;;;;4997635;28;20401;-54
2022/12/05 12:07:51;;;;;;;13.60;9.97;;;10.00;1.00;;;;;;5007569;28;20194;-53
2022/12/05 12:10:23;;;;;;;14.27;10.13;;;10.10;1.00;;;;;;4993226;28;20831;-53
2022/12/05 12:13:09;;;;;;;13.80;10.63;;;10.00;1.00;;;;;;4992150;28;20452;-52
2022/12/05 12:16:14;;;;;;;13.40;10.00;;;10.10;1.00;;;;;;4995756;28;20458;-54
2022/12/05 12:18:55;;;;;;;12.40;10.27;;;10.20;1.00;;;;;;4942507;28;20901;-51
2022/12/05 12:21:51;;;;;;;11.53;8.90;;;10.10;1.00;;;;;;4990818;28;20464;-53
2022/12/05 12:24:22;;;;;;;12.60;9.47;;;10.10;1.00;;;;;;5009027;28;20493;-55
2022/12/05 12:27:13;;;;;;;14.40;10.60;;;10.00;1.00;;;;;;5002355;28;20959;-51
2022/12/05 12:30:16;;;;;;;14.63;10.03;;;10.10;1.00;;;;;;5000306;28;20412;-53
2022/12/05 12:32:44;;;;;;;13.70;10.07;;;10.10;1.00;;;;;;4993675;28;20420;-53
2022/12/05 12:35:16;;;;;;;13.47;9.90;;;10.10;1.00;;;;;;5003020;28;20427;-52
2022/12/05 12:38:00;;;;;;;13.20;10.17;;;10.00;1.00;;;;;;5005787;28;20416;-54
2022/12/05 12:40:52;;;;;;;13.83;9.30;;;9.90;1.00;;;;;;5001418;28;20459;-53
2022/12/05 12:43:20;;;;;;;12.63;9.30;;;9.90;1.00;;;;;;4992398;28;20432;-54
2022/12/05 12:46:27;;;;;;;10.17;8.70;;;9.90;1.00;;;;;;4998626;28;20427;-54
2022/12/05 12:49:26;;;;;;;11.27;9.20;;;9.90;1.00;;;;;;4996376;28;20441;-52
2022/12/05 12:51:57;;;;;;;10.70;8.60;;;9.90;1.00;;;;;;5002521;28;20463;-52
2022/12/05 12:54:48;;;;;;;12.97;8.87;;;9.90;1.00;;;;;;5006152;28;20459;-54
2022/12/05 12:57:21;;;;;;;11.87;8.43;;;9.90;1.00;;;;;;5001301;28;20913;-53
2022/12/05 12:59:46;;;;;;;12.37;9.50;;;9.90;1.00;;;;;;4998842;28;20415;-52
2022/12/05 13:02:25;;;;;;;13.70;9.13;;;9.90;1.00;;;;;;5005191;28;20447;-54
2022/12/05 13:04:59;;;;;;;11.90;8.90;;;9.90;1.00;;;;;;5010291;28;20621;-54
2022/12/05 13:07:40;;;;;;;10.27;8.27;;;10.00;1.00;;;;;;5007470;28;20416;-56
2022/12/05 13:10:16;;;;;;;10.00;8.93;;;10.00;1.00;;;;;;5004011;28;20476;-54
2022/12/05 13:12:44;;;;;;;11.47;9.37;;;10.10;1.00;;;;;;4997581;28;20486;-53
2022/12/05 13:15:15;;;;;;;12.43;8.50;;;10.10;1.00;;;;;;4999667;28;20848;-55
2022/12/05 13:17:44;;;;;;;9.80;8.27;;;10.00;1.00;;;;;;5002710;28;20442;-55
2022/12/05 13:20:22;;;;;;;9.60;8.10;;;10.00;1.00;;;;;;5001791;28;20473;-53